createdAt,value
2018-06-27T00:01:35.907Z,96.50
2018-06-27T00:04:05.062Z,96.20
2018-06-27T00:06:34.014Z,96.30
2018-06-27T00:09:05.498Z,96.30
2018-06-27T00:11:34.467Z,96.20
2018-06-27T00:14:03.649Z,96.10
2018-06-27T00:16:32.791Z,96.70
2018-06-27T00:19:01.965Z,96.60
2018-06-27T00:24:00.098Z,96.80
2018-06-27T00:26:28.935Z,96.50
2018-06-27T00:31:26.648Z,95.90
2018-06-27T00:33:55.524Z,95.90
2018-06-27T00:36:24.405Z,95.70
2018-06-27T00:38:53.335Z,96.30
2018-06-27T00:41:22.327Z,96.30
2018-06-27T00:43:51.232Z,95.90
2018-06-27T00:46:20.067Z,96.10
2018-06-27T00:48:49.027Z,96.20
2018-06-27T00:51:17.986Z,96.10
2018-06-27T00:53:52.724Z,96.20
2018-06-27T00:56:21.631Z,95.90
2018-06-27T00:58:50.524Z,96.30
2018-06-27T01:01:19.651Z,96.30
2018-06-27T01:03:48.948Z,96.50
2018-06-27T01:06:17.859Z,96.60
2018-06-27T01:08:46.734Z,96.00
2018-06-27T01:11:15.752Z,96.30
2018-06-27T01:13:45.287Z,95.60
2018-06-27T01:16:14.593Z,94.60
2018-06-27T01:18:43.455Z,94.80
2018-06-27T01:21:12.840Z,94.80
2018-06-27T01:23:42.316Z,94.70
2018-06-27T01:28:40.282Z,95.00
2018-06-27T01:31:09.816Z,95.30
2018-06-27T01:33:38.911Z,95.00
2018-06-27T01:36:07.797Z,94.90
2018-06-27T01:38:36.639Z,94.50
2018-06-27T01:41:05.675Z,94.70
2018-06-27T01:43:34.516Z,94.50
2018-06-27T01:46:03.362Z,95.00
2018-06-27T01:48:32.200Z,95.20
2018-06-27T01:51:01.043Z,95.80
2018-06-27T01:53:29.900Z,95.80
2018-06-27T01:55:58.743Z,95.60
2018-06-27T02:00:56.319Z,95.00
2018-06-27T02:05:54.034Z,95.70
2018-06-27T02:08:22.867Z,96.10
2018-06-27T02:13:20.629Z,95.70
2018-06-27T02:15:49.569Z,96.40
2018-06-27T02:18:18.691Z,96.60
2018-06-27T02:20:47.532Z,97.30
2018-06-27T02:23:16.434Z,96.70
2018-06-27T02:25:45.255Z,96.10
2018-06-27T02:28:14.115Z,96.70
2018-06-27T02:30:42.928Z,97.20
2018-06-27T02:33:17.553Z,97.30
2018-06-27T02:35:46.375Z,97.20
2018-06-27T02:38:15.234Z,97.20
2018-06-27T02:40:44.180Z,97.40
2018-06-27T02:43:13.163Z,97.30
2018-06-27T02:45:42.068Z,97.30
2018-06-27T02:48:10.928Z,97.00
2018-06-27T02:50:39.764Z,97.50
2018-06-27T02:55:37.411Z,97.60
2018-06-27T02:58:06.340Z,97.40
2018-06-27T03:00:35.199Z,97.40
2018-06-27T03:03:04.132Z,97.10
2018-06-27T03:05:32.950Z,97.40
2018-06-27T03:08:01.771Z,97.50
2018-06-27T03:10:30.599Z,97.50
2018-06-27T03:12:59.420Z,97.30
2018-06-27T03:15:28.259Z,97.40
2018-06-27T03:20:25.962Z,97.50
2018-06-27T03:25:23.595Z,97.40
2018-06-27T03:27:52.402Z,97.80
2018-06-27T03:30:21.224Z,97.60
2018-06-27T03:35:18.762Z,97.10
2018-06-27T03:45:14.994Z,98.00
2018-06-27T03:47:43.832Z,97.10
2018-06-27T03:50:12.907Z,97.60
2018-06-27T03:52:47.803Z,97.70
2018-06-27T03:55:16.655Z,97.30
2018-06-27T04:00:14.608Z,97.80
2018-06-27T04:02:43.496Z,97.40
2018-06-27T04:05:12.323Z,97.50
2018-06-27T04:10:11.447Z,97.20
2018-06-27T04:12:40.402Z,97.60
2018-06-27T04:17:37.927Z,97.90
2018-06-27T04:20:06.873Z,97.90
2018-06-27T04:22:35.923Z,97.70
2018-06-27T04:25:05.024Z,97.70
2018-06-27T04:27:34.160Z,97.60
2018-06-27T04:30:03.545Z,97.70
2018-06-27T04:32:32.386Z,97.60
2018-06-27T04:37:29.935Z,97.30
2018-06-27T04:42:27.524Z,98.20
2018-06-27T04:47:25.123Z,97.20
2018-06-27T04:49:54.000Z,97.50
2018-06-27T04:52:22.952Z,97.70
2018-06-27T04:54:51.830Z,97.60
2018-06-27T04:57:20.671Z,97.30
2018-06-27T05:02:18.293Z,96.90
2018-06-27T05:04:47.195Z,97.70
2018-06-27T05:07:15.971Z,98.00
2018-06-27T05:09:44.815Z,97.80
2018-06-27T05:12:13.702Z,97.90
2018-06-27T05:17:11.460Z,97.80
2018-06-27T05:19:43.174Z,97.70
2018-06-27T05:22:12.932Z,96.10
2018-06-27T05:24:42.205Z,97.30
2018-06-27T05:27:11.079Z,97.50
2018-06-27T05:29:39.984Z,97.50
2018-06-27T05:32:08.887Z,97.20
2018-06-27T05:34:37.734Z,96.60
2018-06-27T05:37:13.432Z,97.20
2018-06-27T05:39:42.319Z,97.30
2018-06-27T05:42:11.205Z,96.60
2018-06-27T05:47:08.874Z,95.10
2018-06-27T05:49:37.760Z,95.10
2018-06-27T05:52:06.675Z,95.30
2018-06-27T05:54:35.499Z,96.10
2018-06-27T05:57:04.395Z,96.30
2018-06-27T05:59:33.226Z,95.70
2018-06-27T06:02:02.115Z,95.90
2018-06-27T06:04:30.995Z,96.30
2018-06-27T06:06:59.873Z,96.30
2018-06-27T06:09:28.764Z,96.50
2018-06-27T06:11:58.123Z,96.60
2018-06-27T06:16:55.768Z,94.40
2018-06-27T06:19:25.227Z,94.10
2018-06-27T06:24:22.790Z,94.10
2018-06-27T06:29:20.991Z,95.60
2018-06-27T06:36:47.463Z,94.50
2018-06-27T06:41:45.231Z,95.30
2018-06-27T06:44:14.152Z,94.90
2018-06-27T06:46:42.972Z,93.50
2018-06-27T06:49:11.833Z,93.30
2018-06-27T06:51:40.711Z,93.20
2018-06-27T06:54:09.575Z,93.80
2018-06-27T06:56:38.631Z,94.30
2018-06-27T06:59:07.607Z,92.70
2018-06-27T07:01:36.527Z,92.10
2018-06-27T07:04:05.471Z,92.10
2018-06-27T07:06:34.295Z,93.30
2018-06-27T07:09:04.287Z,92.10
2018-06-27T07:11:33.095Z,92.40
2018-06-27T07:14:01.936Z,91.60
2018-06-27T07:16:30.856Z,93.20
2018-06-27T07:18:59.698Z,92.50
2018-06-27T07:21:29.891Z,92.90
2018-06-27T07:23:58.883Z,93.40
2018-06-27T07:26:27.792Z,93.90
2018-06-27T07:28:56.747Z,92.80
2018-06-27T07:31:25.599Z,92.20
2018-06-27T07:33:55.035Z,91.80
2018-06-27T07:36:24.027Z,91.10
2018-06-27T07:38:55.989Z,91.90
2018-06-27T07:41:24.826Z,90.40
2018-06-27T07:43:53.685Z,91.20
2018-06-27T07:46:22.491Z,90.30
2018-06-27T07:48:51.562Z,88.70
2018-06-27T07:53:49.143Z,89.30
2018-06-27T07:56:17.964Z,89.30
2018-06-27T07:58:46.770Z,90.20
2018-06-27T08:01:15.593Z,85.80
2018-06-27T08:03:44.816Z,87.10
2018-06-27T08:06:13.703Z,86.70
2018-06-27T08:08:42.563Z,86.10
2018-06-27T08:13:40.154Z,82.20
2018-06-27T08:16:09.008Z,82.40
2018-06-27T08:18:41.883Z,81.70
2018-06-27T08:21:10.890Z,84.00
2018-06-27T08:23:39.725Z,81.70
2018-06-27T08:26:08.647Z,80.90
2018-06-27T08:28:37.429Z,78.30
2018-06-27T08:31:06.471Z,78.70
2018-06-27T08:33:35.320Z,76.30
2018-06-27T08:36:04.177Z,77.90
2018-06-27T08:38:33.009Z,78.80
2018-06-27T08:41:01.836Z,79.80
2018-06-27T08:43:30.680Z,79.00
2018-06-27T08:45:59.521Z,74.10
2018-06-27T08:48:28.332Z,75.10
2018-06-27T08:50:57.207Z,75.30
2018-06-27T08:53:26.075Z,73.60
2018-06-27T08:55:54.923Z,72.50
2018-06-27T08:58:23.788Z,73.40
2018-06-27T09:00:52.695Z,71.50
2018-06-27T09:03:21.547Z,73.20
2018-06-27T09:05:50.363Z,71.60
2018-06-27T09:08:19.259Z,70.90
2018-06-27T09:10:48.072Z,72.10
2018-06-27T09:13:16.916Z,69.20
2018-06-27T09:15:45.732Z,69.50
2018-06-27T09:18:14.566Z,71.40
2018-06-27T09:20:43.444Z,71.90
2018-06-27T09:23:12.292Z,73.60
2018-06-27T09:25:41.114Z,69.40
2018-06-27T09:28:09.994Z,70.60
2018-06-27T09:30:38.836Z,70.90
2018-06-27T09:33:07.692Z,73.50
2018-06-27T09:35:36.526Z,68.00
2018-06-27T09:38:05.406Z,71.10
2018-06-27T09:40:34.339Z,72.00
2018-06-27T09:43:03.191Z,70.00
2018-06-27T09:45:32.005Z,67.80
2018-06-27T09:48:00.877Z,70.00
2018-06-27T09:50:29.731Z,71.50
2018-06-27T09:52:58.569Z,68.40
2018-06-27T09:55:27.423Z,63.10
2018-06-27T09:57:56.247Z,65.30
2018-06-27T10:00:30.655Z,69.50
2018-06-27T10:05:28.188Z,67.30
2018-06-27T10:10:25.790Z,65.00
2018-06-27T10:12:54.623Z,66.40
2018-06-27T10:15:23.466Z,68.70
2018-06-27T10:17:52.340Z,68.60
2018-06-27T10:20:21.165Z,72.00
2018-06-27T10:22:50.016Z,68.70
2018-06-27T10:27:47.855Z,67.90
2018-06-27T10:30:16.697Z,68.20
2018-06-27T10:35:14.271Z,65.80
2018-06-27T10:40:11.883Z,65.10
2018-06-27T10:42:40.732Z,63.50
2018-06-27T10:45:09.560Z,60.00
2018-06-27T10:47:38.428Z,68.00
2018-06-27T10:50:07.292Z,66.40
2018-06-27T10:52:36.139Z,64.50
2018-06-27T10:55:23.731Z,66.60
2018-06-27T10:57:52.614Z,67.60
2018-06-27T11:00:21.465Z,67.10
2018-06-27T11:02:50.307Z,69.20
2018-06-27T11:05:19.179Z,68.40
2018-06-27T11:07:48.043Z,64.40
2018-06-27T11:10:17.160Z,63.40
2018-06-27T11:12:46.008Z,64.80
2018-06-27T11:15:14.847Z,67.40
2018-06-27T11:20:12.507Z,70.80
2018-06-27T11:22:41.484Z,68.10
2018-06-27T11:25:10.415Z,65.90
2018-06-27T11:30:08.091Z,64.40
2018-06-27T11:35:05.728Z,65.20
2018-06-27T11:37:34.586Z,67.40
2018-06-27T11:40:03.781Z,67.10
2018-06-27T11:42:32.633Z,64.60
2018-06-27T11:47:30.292Z,65.60
2018-06-27T11:49:59.150Z,66.80
2018-06-27T11:52:27.999Z,66.00
2018-06-27T11:55:02.588Z,66.10
2018-06-27T11:57:31.434Z,64.00
2018-06-27T12:00:00.494Z,64.60
2018-06-27T12:02:29.332Z,67.10
2018-06-27T12:04:58.291Z,66.70
2018-06-27T12:07:27.133Z,67.30
2018-06-27T12:09:55.967Z,65.80
2018-06-27T12:14:53.563Z,63.20
2018-06-27T12:17:22.427Z,64.50
2018-06-27T12:19:51.284Z,62.50
2018-06-27T12:22:20.172Z,60.90
2018-06-27T12:24:49.084Z,63.90
2018-06-27T12:27:17.944Z,62.50
2018-06-27T12:29:46.793Z,64.50
2018-06-27T12:32:15.640Z,65.90
2018-06-27T12:34:44.516Z,63.80
2018-06-27T12:37:13.368Z,65.60
2018-06-27T12:39:42.175Z,64.50
2018-06-27T12:44:39.840Z,62.20
2018-06-27T12:47:08.711Z,62.50
2018-06-27T12:52:06.395Z,66.40
2018-06-27T12:57:04.040Z,62.10
2018-06-27T12:59:32.872Z,57.40
2018-06-27T13:02:01.720Z,55.80
2018-06-27T13:04:30.564Z,56.80
2018-06-27T13:06:59.413Z,57.60
2018-06-27T13:09:28.316Z,56.00
2018-06-27T13:14:26.029Z,54.30
2018-06-27T13:16:54.858Z,56.00
2018-06-27T13:19:23.731Z,55.80
2018-06-27T13:21:52.619Z,54.80
2018-06-27T13:24:21.447Z,53.20
2018-06-27T13:26:50.308Z,53.80
2018-06-27T13:29:19.142Z,55.70
2018-06-27T13:31:48.035Z,53.90
2018-06-27T13:34:16.851Z,55.00
2018-06-27T13:36:45.710Z,55.90
2018-06-27T13:39:14.824Z,57.00
2018-06-27T13:41:44.077Z,58.20
2018-06-27T13:44:12.991Z,56.70
2018-06-27T13:46:42.389Z,57.00
2018-06-27T13:49:11.857Z,58.20
2018-06-27T13:51:40.699Z,58.10
2018-06-27T13:54:09.555Z,56.20
2018-06-27T13:56:38.422Z,57.00
2018-06-27T13:59:07.285Z,59.20
2018-06-27T14:01:36.267Z,56.80
2018-06-27T14:04:05.156Z,57.10
2018-06-27T14:06:34.013Z,57.60
2018-06-27T14:09:03.024Z,55.10
2018-06-27T14:14:00.675Z,58.60
2018-06-27T14:16:29.556Z,58.20
2018-06-27T14:18:58.469Z,56.90
2018-06-27T14:21:27.425Z,58.10
2018-06-27T14:23:56.286Z,58.80
2018-06-27T14:26:25.701Z,56.20
2018-06-27T14:28:54.596Z,56.80
2018-06-27T14:31:23.500Z,56.40
2018-06-27T14:33:52.407Z,57.90
2018-06-27T14:36:21.312Z,56.70
2018-06-27T14:38:50.559Z,58.70
2018-06-27T14:41:20.376Z,56.90
2018-06-27T14:43:49.353Z,56.60
2018-06-27T14:46:18.195Z,56.50
2018-06-27T14:48:47.299Z,58.10
2018-06-27T14:51:16.183Z,59.20
2018-06-27T14:53:45.032Z,56.20
2018-06-27T14:56:13.897Z,56.00
2018-06-27T15:01:11.539Z,54.00
2018-06-27T15:03:40.553Z,53.80
2018-06-27T15:06:09.433Z,52.00
2018-06-27T15:08:38.318Z,52.70
2018-06-27T15:11:07.393Z,50.80
2018-06-27T15:13:36.375Z,51.40
2018-06-27T15:16:05.230Z,54.60
2018-06-27T15:18:34.100Z,56.30
2018-06-27T15:21:02.992Z,55.40
2018-06-27T15:26:00.632Z,57.30
2018-06-27T15:28:32.428Z,57.00
2018-06-27T15:31:01.305Z,56.30
2018-06-27T15:33:30.203Z,57.60
2018-06-27T15:35:59.060Z,57.10
2018-06-27T15:38:27.930Z,57.50
2018-06-27T15:40:56.774Z,58.30
2018-06-27T15:43:25.690Z,57.70
2018-06-27T15:45:54.523Z,58.10
2018-06-27T15:48:23.486Z,58.60
2018-06-27T15:50:52.378Z,58.70
2018-06-27T15:53:21.284Z,59.00
2018-06-27T15:55:50.128Z,58.40
2018-06-27T15:58:19.881Z,60.00
2018-06-27T16:03:17.505Z,59.50
2018-06-27T16:05:46.396Z,59.10
2018-06-27T16:08:15.276Z,58.80
2018-06-27T16:10:44.139Z,60.90
2018-06-27T16:13:13.041Z,58.40
2018-06-27T16:15:41.920Z,60.80
2018-06-27T16:18:10.847Z,61.40
2018-06-27T16:20:39.751Z,59.00
2018-06-27T16:23:08.632Z,58.50
2018-06-27T16:25:37.584Z,60.60
2018-06-27T16:28:06.999Z,59.00
2018-06-27T16:30:35.888Z,59.10
2018-06-27T16:33:04.783Z,58.20
2018-06-27T16:35:33.665Z,58.20
2018-06-27T16:38:02.548Z,59.70
2018-06-27T16:40:31.477Z,63.90
2018-06-27T16:43:00.410Z,61.90
2018-06-27T16:45:29.325Z,61.60
2018-06-27T16:47:58.287Z,62.50
2018-06-27T16:50:27.244Z,60.90
2018-06-27T16:52:56.116Z,65.60
2018-06-27T16:55:25.072Z,64.30
2018-06-27T16:57:54.016Z,64.90
2018-06-27T17:00:22.951Z,62.50
2018-06-27T17:02:51.807Z,63.00
2018-06-27T17:05:20.674Z,61.60
2018-06-27T17:07:49.569Z,62.20
2018-06-27T17:10:18.484Z,61.40
2018-06-27T17:12:47.379Z,64.10
2018-06-27T17:17:45.012Z,66.40
2018-06-27T17:20:13.851Z,66.40
2018-06-27T17:27:40.311Z,69.50
2018-06-27T17:30:09.222Z,68.90
2018-06-27T17:32:38.136Z,68.80
2018-06-27T17:37:35.836Z,70.30
2018-06-27T17:40:06.099Z,69.50
2018-06-27T17:42:35.655Z,69.30
2018-06-27T17:45:05.326Z,69.30
2018-06-27T17:50:04.257Z,69.10
2018-06-27T17:52:33.531Z,67.60
2018-06-27T17:55:02.488Z,66.10
2018-06-27T17:57:31.364Z,69.10
2018-06-27T18:00:00.720Z,68.00
2018-06-27T18:02:29.644Z,68.30
2018-06-27T18:04:59.076Z,67.60
2018-06-27T18:07:28.292Z,66.00
2018-06-27T18:09:57.167Z,66.90
2018-06-27T18:12:26.651Z,66.90
2018-06-27T18:14:55.527Z,66.20
2018-06-27T18:17:25.028Z,66.50
2018-06-27T18:19:53.888Z,66.90
2018-06-27T18:22:22.781Z,67.70
2018-06-27T18:24:51.674Z,68.20
2018-06-27T18:27:20.608Z,66.70
2018-06-27T18:29:49.472Z,67.90
2018-06-27T18:32:18.612Z,68.90
2018-06-27T18:34:47.873Z,68.80
2018-06-27T18:37:16.785Z,70.20
2018-06-27T18:39:45.731Z,70.00
2018-06-27T18:44:43.576Z,72.50
2018-06-27T18:47:12.576Z,72.00
2018-06-27T18:49:41.692Z,74.50
2018-06-27T18:52:10.727Z,75.30
2018-06-27T18:54:39.688Z,76.90
2018-06-27T18:57:08.941Z,77.30
2018-06-27T18:59:37.791Z,78.90
2018-06-27T19:02:08.764Z,79.70
2018-06-27T19:04:37.648Z,81.40
2018-06-27T19:07:06.527Z,82.00
2018-06-27T19:09:35.484Z,82.50
2018-06-27T19:14:33.124Z,83.20
2018-06-27T19:17:02.024Z,82.90
2018-06-27T19:19:30.916Z,84.00
2018-06-27T19:22:00.189Z,84.60
2018-06-27T19:24:29.140Z,85.70
2018-06-27T19:26:57.975Z,84.90
2018-06-27T19:29:26.814Z,84.00
2018-06-27T19:31:55.660Z,82.60
2018-06-27T19:34:25.040Z,81.40
2018-06-27T19:36:53.933Z,80.90
2018-06-27T19:39:22.796Z,80.00
2018-06-27T19:41:51.784Z,78.50
2018-06-27T19:46:49.481Z,78.10
2018-06-27T19:49:18.536Z,76.30
2018-06-27T19:51:47.647Z,75.40
2018-06-27T19:54:16.264Z,75.80
2018-06-27T19:56:45.199Z,77.00
2018-06-27T19:59:14.843Z,75.90
2018-06-27T20:01:43.769Z,77.50
2018-06-27T20:04:12.761Z,76.90
2018-06-27T20:06:41.643Z,77.40
2018-06-27T20:09:11.065Z,76.60
2018-06-27T20:11:40.347Z,77.90
2018-06-27T20:14:09.321Z,81.20
2018-06-27T20:16:38.189Z,82.50
2018-06-27T20:19:07.122Z,84.30
2018-06-27T20:21:36.013Z,86.30
2018-06-27T20:24:05.017Z,88.20
2018-06-27T20:26:33.864Z,86.70
2018-06-27T20:31:32.872Z,89.70
2018-06-27T20:36:30.553Z,90.60
2018-06-27T20:38:59.384Z,91.00
2018-06-27T20:41:28.257Z,91.10
2018-06-27T20:43:57.250Z,91.40
2018-06-27T20:46:26.128Z,91.80
2018-06-27T20:51:23.796Z,92.40
2018-06-27T20:53:52.656Z,92.50
2018-06-27T20:56:21.504Z,92.90
2018-06-27T20:58:50.418Z,92.70
2018-06-27T21:01:19.278Z,93.20
2018-06-27T21:06:17.458Z,93.40
2018-06-27T21:08:46.370Z,93.50
2018-06-27T21:11:15.281Z,93.50
2018-06-27T21:13:44.135Z,93.40
2018-06-27T21:18:41.872Z,93.80
2018-06-27T21:21:10.748Z,94.10
2018-06-27T21:23:39.585Z,93.50
2018-06-27T21:26:08.464Z,93.40
2018-06-27T21:28:37.320Z,93.30
2018-06-27T21:31:06.212Z,93.70
2018-06-27T21:33:35.103Z,94.00
2018-06-27T21:36:04.063Z,94.10
2018-06-27T21:38:32.910Z,94.00
2018-06-27T21:41:01.751Z,94.10
2018-06-27T21:43:31.212Z,94.10
2018-06-27T21:46:00.297Z,93.90
2018-06-27T21:48:29.147Z,94.10
2018-06-27T21:50:58.079Z,94.10
2018-06-27T21:53:26.941Z,93.70
2018-06-27T21:55:55.768Z,94.10
2018-06-27T21:58:24.660Z,94.00
2018-06-27T22:03:22.236Z,93.70
2018-06-27T22:05:51.112Z,94.10
2018-06-27T22:08:19.951Z,93.20
2018-06-27T22:10:48.792Z,93.10
2018-06-27T22:13:17.699Z,93.40
2018-06-27T22:18:15.843Z,92.80
2018-06-27T22:20:44.700Z,93.00
2018-06-27T22:23:13.544Z,93.10
2018-06-27T22:25:42.369Z,93.10
2018-06-27T22:28:11.296Z,92.40
2018-06-27T22:30:40.199Z,93.00
2018-06-27T22:33:09.053Z,92.20
2018-06-27T22:35:37.911Z,93.30
2018-06-27T22:38:06.743Z,92.30
2018-06-27T22:40:35.592Z,93.10
2018-06-27T22:43:04.551Z,93.40
2018-06-27T22:45:33.404Z,93.30
2018-06-27T22:48:02.243Z,93.80
2018-06-27T22:50:31.096Z,93.80
2018-06-27T22:52:59.959Z,93.70
2018-06-27T22:55:28.758Z,93.50
2018-06-27T22:57:57.588Z,93.20
2018-06-27T23:00:26.440Z,93.20
2018-06-27T23:02:55.304Z,93.60
2018-06-27T23:07:52.870Z,93.00
2018-06-27T23:10:21.764Z,93.60
2018-06-27T23:12:50.583Z,92.80
2018-06-27T23:15:19.388Z,93.10
2018-06-27T23:17:48.343Z,92.60
2018-06-27T23:22:47.104Z,92.30
2018-06-27T23:25:16.014Z,92.30
2018-06-27T23:27:45.291Z,93.00
2018-06-27T23:30:14.171Z,93.00
2018-06-27T23:32:43.056Z,93.30
2018-06-27T23:35:11.969Z,93.50
2018-06-27T23:37:40.932Z,94.00
2018-06-27T23:40:09.850Z,93.40
2018-06-27T23:42:38.699Z,92.60
2018-06-27T23:45:07.844Z,93.20
2018-06-27T23:47:36.695Z,93.10
2018-06-27T23:50:05.617Z,92.90
2018-06-27T23:52:34.505Z,92.50
2018-06-27T23:55:03.828Z,92.70
2018-06-27T23:57:32.896Z,92.70
